createdAt,value
2023-02-19T00:00:59.204Z,99.99
2023-02-19T00:01:59.180Z,99.99
2023-02-19T00:02:59.216Z,99.99
2023-02-19T00:03:59.995Z,99.99
2023-02-19T00:04:59.219Z,99.99
2023-02-19T00:05:59.158Z,99.99
2023-02-19T00:06:59.131Z,99.99
2023-02-19T00:07:59.174Z,99.99
2023-02-19T00:08:59.130Z,99.99
2023-02-19T00:09:59.092Z,99.99
2023-02-19T00:10:59.086Z,99.99
2023-02-19T00:11:59.081Z,99.99
2023-02-19T00:12:59.121Z,99.99
2023-02-19T00:13:59.064Z,99.99
2023-02-19T00:14:59.046Z,99.99
2023-02-19T00:15:59.097Z,99.99
2023-02-19T00:16:59.032Z,99.99
2023-02-19T00:17:59.021Z,99.99
2023-02-19T00:18:59.002Z,99.99
2023-02-19T00:19:58.992Z,99.99
2023-02-19T00:20:58.992Z,99.99
2023-02-19T00:21:59.422Z,99.99
2023-02-19T00:22:58.953Z,99.99
2023-02-19T00:23:58.962Z,99.99
2023-02-19T00:24:58.942Z,99.99
2023-02-19T00:26:06.007Z,99.99
2023-02-19T00:26:59.950Z,99.99
2023-02-19T00:27:58.913Z,99.99
2023-02-19T00:28:58.909Z,99.99
2023-02-19T00:29:58.923Z,99.99
2023-02-19T00:30:58.964Z,99.99
2023-02-19T00:31:58.982Z,99.99
2023-02-19T00:32:58.876Z,99.99
2023-02-19T00:33:58.860Z,99.99
2023-02-19T00:34:58.835Z,99.99
2023-02-19T00:35:58.828Z,99.99
2023-02-19T00:36:58.830Z,99.99
2023-02-19T00:37:58.807Z,99.99
2023-02-19T00:38:58.821Z,99.99
2023-02-19T00:39:58.789Z,99.99
2023-02-19T00:40:58.772Z,99.99
2023-02-19T00:41:58.800Z,99.99
2023-02-19T00:42:58.751Z,99.99
2023-02-19T00:43:58.761Z,99.99
2023-02-19T00:44:58.731Z,99.99
2023-02-19T00:45:58.762Z,99.99
2023-02-19T00:46:58.721Z,99.99
2023-02-19T00:47:58.709Z,99.99
2023-02-19T00:48:58.701Z,99.99
2023-02-19T00:49:58.692Z,99.99
2023-02-19T00:50:58.744Z,99.99
2023-02-19T00:51:58.661Z,99.99
2023-02-19T00:52:58.651Z,99.99
2023-02-19T00:53:58.644Z,99.99
2023-02-19T00:54:58.634Z,99.99
2023-02-19T00:55:58.624Z,99.99
2023-02-19T00:56:58.616Z,99.99
2023-02-19T00:57:58.616Z,99.99
2023-02-19T00:58:58.584Z,99.99
2023-02-19T00:59:58.589Z,99.99
2023-02-19T01:00:58.565Z,99.99
2023-02-19T01:01:58.674Z,99.99
2023-02-19T01:02:58.544Z,99.99
2023-02-19T01:03:58.544Z,99.99
2023-02-19T01:04:58.582Z,99.99
2023-02-19T01:05:58.518Z,99.99
2023-02-19T01:06:58.506Z,99.99
2023-02-19T01:07:58.953Z,99.99
2023-02-19T01:08:58.490Z,99.99
2023-02-19T01:09:58.481Z,99.99
2023-02-19T01:10:58.456Z,99.99
2023-02-19T01:11:58.475Z,99.99
2023-02-19T01:12:58.449Z,99.99
2023-02-19T01:13:58.443Z,99.99
2023-02-19T01:14:58.413Z,99.99
2023-02-19T01:15:58.441Z,99.99
2023-02-19T01:16:59.204Z,99.99
2023-02-19T01:17:58.382Z,99.99
2023-02-19T01:18:58.377Z,99.99
2023-02-19T01:19:58.362Z,99.99
2023-02-19T01:20:58.495Z,99.99
2023-02-19T01:21:58.343Z,99.99
2023-02-19T01:22:58.331Z,99.99
2023-02-19T01:23:58.347Z,99.99
2023-02-19T01:24:58.303Z,99.99
2023-02-19T01:25:58.753Z,99.99
2023-02-19T01:26:58.282Z,99.99
2023-02-19T01:27:58.274Z,99.99
2023-02-19T01:28:58.291Z,99.99
2023-02-19T01:29:58.446Z,99.99
2023-02-19T01:30:58.377Z,99.99
2023-02-19T01:31:58.340Z,99.99
2023-02-19T01:32:58.222Z,99.99
2023-02-19T01:33:58.214Z,99.99
2023-02-19T01:34:58.677Z,99.99
2023-02-19T01:35:58.197Z,99.99
2023-02-19T01:36:58.176Z,99.99
2023-02-19T01:37:58.185Z,99.99
2023-02-19T01:38:58.165Z,99.99
2023-02-19T01:39:58.159Z,99.99
2023-02-19T01:40:58.129Z,99.99
2023-02-19T01:41:58.149Z,99.99
2023-02-19T01:42:58.118Z,99.99
2023-02-19T01:43:58.125Z,99.99
2023-02-19T01:44:58.100Z,99.99
2023-02-19T01:45:58.088Z,99.99
2023-02-19T01:46:58.079Z,99.99
2023-02-19T01:47:58.069Z,99.99
2023-02-19T01:48:58.051Z,99.99
2023-02-19T01:49:58.070Z,99.99
2023-02-19T01:50:58.031Z,99.99
2023-02-19T01:51:58.043Z,99.99
2023-02-19T01:52:58.010Z,99.99
2023-02-19T01:53:58.003Z,99.99
2023-02-19T01:54:57.988Z,99.99
2023-02-19T01:55:57.987Z,99.99
2023-02-19T01:56:57.960Z,99.99
2023-02-19T01:57:57.984Z,99.99
2023-02-19T01:58:57.956Z,99.99
2023-02-19T01:59:57.953Z,99.99
2023-02-19T02:00:57.963Z,99.99
2023-02-19T02:01:57.942Z,99.99
2023-02-19T02:02:57.895Z,99.99
2023-02-19T02:03:57.906Z,99.99
2023-02-19T02:04:57.874Z,99.99
2023-02-19T02:05:57.885Z,99.99
2023-02-19T02:06:57.864Z,99.99
2023-02-19T02:07:57.854Z,99.99
2023-02-19T02:08:57.864Z,99.99
2023-02-19T02:09:57.837Z,99.99
2023-02-19T02:10:57.843Z,99.99
2023-02-19T02:11:57.816Z,99.99
2023-02-19T02:12:57.825Z,99.99
2023-02-19T02:13:57.796Z,99.99
2023-02-19T02:14:57.778Z,99.99
2023-02-19T02:15:57.810Z,99.99
2023-02-19T02:16:57.758Z,99.99
2023-02-19T02:17:57.765Z,99.99
2023-02-19T02:18:57.729Z,99.99
2023-02-19T02:19:57.750Z,99.99
2023-02-19T02:20:57.709Z,99.99
2023-02-19T02:21:57.717Z,99.99
2023-02-19T02:22:57.691Z,99.99
2023-02-19T02:23:57.701Z,99.99
2023-02-19T02:24:57.679Z,99.99
2023-02-19T02:25:57.668Z,99.99
2023-02-19T02:26:57.651Z,99.99
2023-02-19T02:27:57.652Z,99.99
2023-02-19T02:28:57.624Z,99.99
2023-02-19T02:29:57.646Z,99.99
2023-02-19T02:30:57.723Z,99.99
2023-02-19T02:31:57.744Z,99.99
2023-02-19T02:32:57.584Z,99.99
2023-02-19T02:33:57.599Z,99.99
2023-02-19T02:34:57.565Z,99.99
2023-02-19T02:35:57.576Z,99.99
2023-02-19T02:36:57.556Z,99.99
2023-02-19T02:37:57.544Z,99.99
2023-02-19T02:38:57.795Z,99.99
2023-02-19T02:39:57.537Z,99.99
2023-02-19T02:40:57.507Z,99.99
2023-02-19T02:41:57.515Z,99.99
2023-02-19T02:42:57.483Z,99.99
2023-02-19T02:43:57.497Z,99.99
2023-02-19T02:44:57.466Z,99.99
2023-02-19T02:45:57.486Z,99.99
2023-02-19T02:46:57.446Z,99.99
2023-02-19T02:47:57.448Z,99.99
2023-02-19T02:48:57.418Z,99.99
2023-02-19T02:49:57.418Z,99.99
2023-02-19T02:50:57.396Z,99.99
2023-02-19T02:51:57.547Z,99.99
2023-02-19T02:52:57.375Z,99.99
2023-02-19T02:53:57.389Z,99.99
2023-02-19T02:54:57.365Z,99.99
2023-02-19T02:55:57.357Z,99.99
2023-02-19T02:56:57.350Z,99.99
2023-02-19T02:57:57.327Z,99.99
2023-02-19T02:58:57.312Z,99.99
2023-02-19T02:59:57.311Z,99.99
2023-02-19T03:00:57.330Z,99.99
2023-02-19T03:01:57.316Z,99.99
2023-02-19T03:02:57.280Z,99.99
2023-02-19T03:03:57.267Z,99.99
2023-02-19T03:04:57.246Z,99.99
2023-02-19T03:05:57.258Z,99.99
2023-02-19T03:06:57.219Z,99.99
2023-02-19T03:07:57.222Z,99.99
2023-02-19T03:08:57.198Z,99.99
2023-02-19T03:09:57.216Z,99.99
2023-02-19T03:10:57.185Z,99.99
2023-02-19T03:11:57.182Z,99.99
2023-02-19T03:12:57.170Z,99.99
2023-02-19T03:13:57.166Z,99.99
2023-02-19T03:14:57.149Z,99.99
2023-02-19T03:15:57.133Z,99.99
2023-02-19T03:16:57.113Z,99.99
2023-02-19T03:17:57.113Z,99.99
2023-02-19T03:18:57.090Z,99.99
2023-02-19T03:19:57.101Z,99.99
2023-02-19T03:20:57.081Z,99.99
2023-02-19T03:21:57.071Z,99.99
2023-02-19T03:22:57.049Z,99.99
2023-02-19T03:23:57.840Z,99.99
2023-02-19T03:24:57.039Z,99.99
2023-02-19T03:25:57.044Z,99.99
2023-02-19T03:26:57.027Z,99.99
2023-02-19T03:27:57.008Z,99.99
2023-02-19T03:28:56.992Z,99.99
2023-02-19T03:29:56.989Z,99.99
2023-02-19T03:30:56.980Z,99.99
2023-02-19T03:31:57.099Z,99.99
2023-02-19T03:32:56.943Z,99.99
2023-02-19T03:33:56.941Z,99.99
2023-02-19T03:34:56.930Z,99.99
2023-02-19T03:35:56.952Z,99.99
2023-02-19T03:36:56.921Z,99.99
2023-02-19T03:37:56.910Z,99.99
2023-02-19T03:38:56.889Z,99.99
2023-02-19T03:39:56.881Z,99.99
2023-02-19T03:40:56.861Z,99.99
2023-02-19T03:41:57.232Z,99.99
2023-02-19T03:42:56.850Z,99.99
2023-02-19T03:43:56.832Z,99.99
2023-02-19T03:44:56.844Z,99.99
2023-02-19T03:45:56.884Z,99.99
2023-02-19T03:46:56.807Z,99.99
2023-02-19T03:47:56.823Z,99.99
2023-02-19T03:48:56.787Z,99.99
2023-02-19T03:49:56.772Z,99.99
2023-02-19T03:50:56.753Z,99.99
2023-02-19T03:51:56.771Z,99.99
2023-02-19T03:52:56.744Z,99.99
2023-02-19T03:53:56.733Z,99.99
2023-02-19T03:54:56.744Z,99.99
2023-02-19T03:55:56.717Z,99.99
2023-02-19T03:56:56.699Z,99.99
2023-02-19T03:57:56.716Z,99.99
2023-02-19T03:58:56.698Z,99.99
2023-02-19T03:59:56.668Z,99.99
2023-02-19T04:00:56.649Z,99.99
2023-02-19T04:01:57.327Z,99.99
2023-02-19T04:02:56.629Z,99.99
2023-02-19T04:03:56.645Z,99.99
2023-02-19T04:04:56.772Z,99.99
2023-02-19T04:05:56.611Z,99.99
2023-02-19T04:06:56.591Z,99.99
2023-02-19T04:07:56.601Z,99.99
2023-02-19T04:08:56.573Z,99.99
2023-02-19T04:09:56.587Z,99.99
2023-02-19T04:10:56.563Z,99.99
2023-02-19T04:11:56.552Z,99.99
2023-02-19T04:12:56.535Z,99.99
2023-02-19T04:13:56.530Z,99.99
2023-02-19T04:14:56.504Z,99.99
2023-02-19T04:15:56.522Z,99.99
2023-02-19T04:16:56.502Z,99.99
2023-02-19T04:17:56.494Z,99.99
2023-02-19T04:18:56.475Z,99.99
2023-02-19T04:19:56.465Z,99.99
2023-02-19T04:20:56.445Z,99.99
2023-02-19T04:21:56.474Z,99.99
2023-02-19T04:22:56.437Z,99.99
2023-02-19T04:23:57.210Z,99.99
2023-02-19T04:24:56.425Z,99.99
2023-02-19T04:25:56.410Z,99.99
2023-02-19T04:26:56.407Z,99.99
2023-02-19T04:27:56.377Z,99.99
2023-02-19T04:28:56.375Z,99.99
2023-02-19T04:29:56.357Z,99.99
2023-02-19T04:30:56.398Z,99.99
2023-02-19T04:31:56.397Z,99.99
2023-02-19T04:32:56.336Z,99.99
2023-02-19T04:33:56.309Z,99.99
2023-02-19T04:34:56.307Z,99.99
2023-02-19T04:35:56.293Z,99.99
2023-02-19T04:36:56.316Z,99.99
2023-02-19T04:37:56.266Z,99.99
2023-02-19T04:38:56.254Z,99.99
2023-02-19T04:39:56.234Z,99.99
2023-02-19T04:40:56.244Z,99.99
2023-02-19T04:41:56.230Z,99.99
2023-02-19T04:42:56.225Z,99.99
2023-02-19T04:43:56.217Z,99.99
2023-02-19T04:44:56.199Z,99.99
2023-02-19T04:45:56.219Z,99.99
2023-02-19T04:46:56.878Z,99.99
2023-02-19T04:47:56.166Z,99.99
2023-02-19T04:48:56.154Z,99.99
2023-02-19T04:49:56.136Z,99.99
2023-02-19T04:50:56.137Z,99.99
2023-02-19T04:51:56.194Z,99.99
2023-02-19T04:52:56.155Z,99.99
2023-02-19T04:53:56.094Z,99.99
2023-02-19T04:54:56.118Z,99.99
2023-02-19T04:55:56.075Z,99.99
2023-02-19T04:56:56.074Z,99.99
2023-02-19T04:57:56.046Z,99.99
2023-02-19T04:58:56.055Z,99.99
2023-02-19T04:59:56.038Z,99.99
2023-02-19T05:00:56.828Z,99.99
2023-02-19T05:01:56.028Z,99.99
2023-02-19T05:02:56.007Z,99.99
2023-02-19T05:03:55.987Z,99.99
2023-02-19T05:04:55.997Z,99.99
2023-02-19T05:05:55.987Z,99.99
2023-02-19T05:06:55.987Z,99.99
2023-02-19T05:07:55.947Z,99.99
2023-02-19T05:08:55.951Z,99.99
2023-02-19T05:09:55.928Z,99.99
2023-02-19T05:10:55.930Z,99.99
2023-02-19T05:11:55.907Z,99.99
2023-02-19T05:12:57.968Z,99.99
2023-02-19T05:13:55.896Z,99.99
2023-02-19T05:14:55.886Z,99.99
2023-02-19T05:15:55.900Z,99.99
2023-02-19T05:16:55.871Z,99.99
2023-02-19T05:17:55.860Z,99.99
2023-02-19T05:18:55.844Z,99.99
2023-02-19T05:19:55.830Z,99.99
2023-02-19T05:20:55.820Z,99.99
2023-02-19T05:21:55.814Z,99.99
2023-02-19T05:22:55.809Z,99.99
2023-02-19T05:23:55.791Z,99.99
2023-02-19T05:24:55.783Z,99.99
2023-02-19T05:25:55.764Z,99.99
2023-02-19T05:26:55.770Z,99.99
2023-02-19T05:27:55.742Z,99.99
2023-02-19T05:28:55.732Z,99.99
2023-02-19T05:29:55.721Z,99.99
2023-02-19T05:30:55.807Z,99.99
2023-02-19T05:31:55.787Z,99.99
2023-02-19T05:32:55.710Z,99.99
2023-02-19T05:33:55.689Z,99.99
2023-02-19T05:34:55.685Z,99.99
2023-02-19T05:35:55.740Z,99.99
2023-02-19T05:36:55.699Z,99.99
2023-02-19T05:37:55.640Z,99.99
2023-02-19T05:38:55.646Z,99.99
2023-02-19T05:39:55.623Z,99.99
2023-02-19T05:40:55.625Z,99.99
2023-02-19T05:41:55.605Z,99.99
2023-02-19T05:42:55.595Z,99.99
2023-02-19T05:43:55.570Z,99.99
2023-02-19T05:44:55.581Z,99.99
2023-02-19T05:45:55.579Z,99.99
2023-02-19T05:46:55.559Z,99.99
2023-02-19T05:47:55.543Z,99.99
2023-02-19T05:48:55.673Z,99.99
2023-02-19T05:49:55.511Z,99.99
2023-02-19T05:50:55.519Z,99.99
2023-02-19T05:51:55.498Z,99.99
2023-02-19T05:52:55.507Z,99.99
2023-02-19T05:53:55.473Z,99.99
2023-02-19T05:54:55.467Z,99.99
2023-02-19T05:55:56.128Z,99.99
2023-02-19T05:56:55.466Z,99.99
2023-02-19T05:57:55.431Z,99.99
2023-02-19T05:58:55.422Z,99.99
2023-02-19T05:59:55.417Z,99.99
2023-02-19T06:00:55.468Z,99.99
2023-02-19T06:01:55.396Z,99.99
2023-02-19T06:02:55.476Z,99.99
2023-02-19T06:03:57.385Z,99.99
2023-02-19T06:04:55.394Z,99.99
2023-02-19T06:05:55.336Z,99.99
2023-02-19T06:06:55.345Z,99.99
2023-02-19T06:07:55.332Z,99.99
2023-02-19T06:08:55.325Z,99.99
2023-02-19T06:09:55.292Z,99.99
2023-02-19T06:10:55.291Z,99.99
2023-02-19T06:11:55.325Z,99.99
2023-02-19T06:12:55.281Z,99.99
2023-02-19T06:13:55.261Z,99.99
2023-02-19T06:14:55.270Z,99.99
2023-02-19T06:15:55.255Z,99.99
2023-02-19T06:16:55.233Z,99.99
2023-02-19T06:17:55.213Z,99.99
2023-02-19T06:18:55.266Z,99.99
2023-02-19T06:19:55.212Z,99.99
2023-02-19T06:20:55.194Z,99.99
2023-02-19T06:21:55.195Z,99.99
2023-02-19T06:22:55.166Z,99.99
2023-02-19T06:23:55.148Z,99.99
2023-02-19T06:24:55.155Z,99.99
2023-02-19T06:25:55.124Z,99.99
2023-02-19T06:26:55.125Z,99.99
2023-02-19T06:27:55.105Z,99.99
2023-02-19T06:28:55.104Z,99.99
2023-02-19T06:29:55.089Z,99.99
2023-02-19T06:30:55.088Z,99.99
2023-02-19T06:31:55.239Z,99.99
2023-02-19T06:32:55.120Z,99.99
2023-02-19T06:33:55.091Z,99.99
2023-02-19T06:34:55.082Z,99.99
2023-02-19T06:35:55.034Z,99.99
2023-02-19T06:36:55.042Z,99.99
2023-02-19T06:37:55.001Z,99.99
2023-02-19T06:38:54.992Z,99.99
2023-02-19T06:39:54.994Z,99.99
2023-02-19T06:40:54.983Z,99.99
2023-02-19T06:41:54.963Z,99.99
2023-02-19T06:42:55.000Z,99.99
2023-02-19T06:43:54.944Z,99.99
2023-02-19T06:44:54.935Z,99.99
2023-02-19T06:45:54.934Z,99.99
2023-02-19T06:46:54.960Z,99.99
2023-02-19T06:47:54.961Z,99.99
2023-02-19T06:48:54.887Z,99.99
2023-02-19T06:49:54.875Z,99.99
2023-02-19T06:50:54.866Z,99.99
2023-02-19T06:51:54.862Z,99.99
2023-02-19T06:52:54.936Z,99.99
2023-02-19T06:53:54.859Z,99.99
2023-02-19T06:54:54.829Z,99.99
2023-02-19T06:55:54.813Z,99.99
2023-02-19T06:56:54.853Z,99.99
2023-02-19T06:57:55.458Z,99.99
2023-02-19T06:58:54.807Z,99.99
2023-02-19T06:59:54.777Z,99.99
2023-02-19T07:00:54.842Z,99.99
2023-02-19T07:01:54.752Z,99.99
2023-02-19T07:02:54.790Z,99.99
2023-02-19T07:03:54.835Z,99.99
2023-02-19T07:04:54.751Z,99.99
2023-02-19T07:05:55.353Z,99.99
2023-02-19T07:06:54.722Z,99.99
2023-02-19T07:07:54.683Z,99.99
2023-02-19T07:08:54.684Z,99.99
2023-02-19T07:09:55.641Z,99.99
2023-02-19T07:10:54.656Z,99.99
2023-02-19T07:11:54.656Z,99.99
2023-02-19T07:12:54.644Z,99.99
2023-02-19T07:13:54.616Z,99.99
2023-02-19T07:14:54.609Z,99.99
2023-02-19T07:15:54.595Z,99.99
2023-02-19T07:16:54.592Z,99.99
2023-02-19T07:17:54.580Z,99.99
2023-02-19T07:18:54.582Z,99.99
2023-02-19T07:19:54.595Z,99.99
2023-02-19T07:20:54.577Z,99.99
2023-02-19T07:21:54.557Z,99.99
2023-02-19T07:22:54.554Z,99.99
2023-02-19T07:23:54.509Z,99.99
2023-02-19T07:24:54.506Z,99.99
2023-02-19T07:25:54.478Z,99.99
2023-02-19T07:26:54.488Z,99.99
2023-02-19T07:27:54.468Z,99.99
2023-02-19T07:28:54.458Z,99.99
2023-02-19T07:29:54.467Z,99.99
2023-02-19T07:30:54.466Z,99.99
2023-02-19T07:31:54.495Z,99.99
2023-02-19T07:32:54.419Z,99.99
2023-02-19T07:33:54.410Z,99.99
2023-02-19T07:34:54.390Z,99.99
2023-02-19T07:35:54.391Z,99.99
2023-02-19T07:36:54.387Z,99.99
2023-02-19T07:37:54.366Z,99.99
2023-02-19T07:38:54.364Z,99.99
2023-02-19T07:39:54.343Z,99.99
2023-02-19T07:40:54.341Z,99.99
2023-02-19T07:41:54.333Z,99.99
2023-02-19T07:42:54.329Z,99.99
2023-02-19T07:43:54.307Z,99.99
2023-02-19T07:44:54.287Z,99.99
2023-02-19T07:45:54.453Z,99.99
2023-02-19T07:46:54.367Z,99.99
2023-02-19T07:47:54.281Z,99.99
2023-02-19T07:48:54.285Z,99.99
2023-02-19T07:49:54.240Z,99.99
2023-02-19T07:50:54.236Z,99.99
2023-02-19T07:51:54.243Z,99.99
2023-02-19T07:52:54.208Z,99.99
2023-02-19T07:53:54.199Z,99.99
2023-02-19T07:54:54.189Z,99.99
2023-02-19T07:55:54.179Z,99.99
2023-02-19T07:56:54.175Z,99.67
2023-02-19T07:57:54.150Z,99.88
2023-02-19T07:58:54.148Z,99.11
2023-02-19T07:59:54.184Z,98.70
2023-02-19T08:00:54.153Z,98.19
2023-02-19T08:01:54.110Z,97.27
2023-02-19T08:02:54.104Z,97.88
2023-02-19T08:03:54.107Z,98.39
2023-02-19T08:04:54.083Z,98.50
2023-02-19T08:05:54.085Z,98.80
2023-02-19T08:06:54.064Z,98.70
2023-02-19T08:07:54.123Z,98.91
2023-02-19T08:08:56.211Z,98.91
2023-02-19T08:09:54.016Z,98.60
2023-02-19T08:10:54.026Z,98.70
2023-02-19T08:11:53.994Z,98.80
2023-02-19T08:12:53.995Z,97.82
2023-02-19T08:13:53.974Z,97.99
2023-02-19T08:14:53.975Z,96.80
2023-02-19T08:15:56.285Z,97.72
2023-02-19T08:16:54.008Z,97.92
2023-02-19T08:17:53.941Z,98.33
2023-02-19T08:18:53.985Z,97.00
2023-02-19T08:19:53.915Z,96.69
2023-02-19T08:20:53.915Z,96.90
2023-02-19T08:21:53.903Z,96.80
2023-02-19T08:22:53.898Z,97.10
2023-02-19T08:23:53.898Z,97.20
2023-02-19T08:24:53.868Z,97.52
2023-02-19T08:25:53.856Z,97.82
2023-02-19T08:26:53.848Z,97.82
2023-02-19T08:27:53.829Z,98.54
2023-02-19T08:28:54.634Z,98.54
2023-02-19T08:29:53.807Z,97.20
2023-02-19T08:30:53.856Z,96.69
2023-02-19T08:31:53.818Z,97.00
2023-02-19T08:32:53.793Z,96.59
2023-02-19T08:33:53.779Z,97.00
2023-02-19T08:34:53.771Z,97.37
2023-02-19T08:35:53.753Z,97.47
2023-02-19T08:36:53.759Z,96.85
2023-02-19T08:37:53.729Z,96.14
2023-02-19T08:38:57.387Z,94.90
2023-02-19T08:39:53.707Z,94.18
2023-02-19T08:40:53.700Z,94.70
2023-02-19T08:41:53.701Z,95.01
2023-02-19T08:42:53.701Z,95.01
2023-02-19T08:43:53.702Z,93.05
2023-02-19T08:44:53.649Z,93.26
2023-02-19T08:45:53.700Z,93.26
2023-02-19T08:46:53.632Z,94.04
2023-02-19T08:47:53.629Z,93.12
2023-02-19T08:48:53.605Z,90.75
2023-02-19T08:49:53.605Z,91.78
2023-02-19T08:50:53.592Z,92.60
2023-02-19T08:51:53.580Z,91.99
2023-02-19T08:52:53.580Z,92.08
2023-02-19T08:53:53.563Z,90.14
2023-02-19T08:54:53.538Z,90.55
2023-02-19T08:55:53.551Z,91.02
2023-02-19T08:56:53.521Z,90.71
2023-02-19T08:57:53.523Z,91.12
2023-02-19T08:58:53.563Z,90.40
2023-02-19T08:59:53.501Z,91.33
2023-02-19T09:00:53.476Z,90.97
2023-02-19T09:01:54.294Z,90.26
2023-02-19T09:02:53.459Z,90.46
2023-02-19T09:03:53.524Z,90.77
2023-02-19T09:04:53.448Z,90.56
2023-02-19T09:05:53.446Z,91.28
2023-02-19T09:06:53.416Z,91.75
2023-02-19T09:07:53.514Z,90.36
2023-02-19T09:08:53.394Z,89.70
2023-02-19T09:09:53.392Z,88.27
2023-02-19T09:10:53.379Z,88.68
2023-02-19T09:11:53.373Z,87.96
2023-02-19T09:12:53.344Z,88.98
2023-02-19T09:13:53.355Z,88.43
2023-02-19T09:14:53.336Z,89.36
2023-02-19T09:15:53.336Z,89.15
2023-02-19T09:16:53.306Z,88.29
2023-02-19T09:17:53.736Z,87.47
2023-02-19T09:18:53.584Z,88.49
2023-02-19T09:19:53.295Z,88.08
2023-02-19T09:20:53.285Z,87.16
2023-02-19T09:21:53.257Z,87.77
2023-02-19T09:22:53.238Z,86.99
2023-02-19T09:23:53.240Z,87.71
2023-02-19T09:24:53.219Z,88.02
2023-02-19T09:25:53.303Z,88.02
2023-02-19T09:26:53.199Z,88.53
2023-02-19T09:27:53.202Z,86.90
2023-02-19T09:28:53.194Z,87.30
2023-02-19T09:29:53.176Z,87.96
2023-02-19T09:30:53.173Z,87.30
2023-02-19T09:31:53.169Z,88.53
2023-02-19T09:32:53.143Z,88.74
2023-02-19T09:33:53.142Z,88.94
2023-02-19T09:34:53.127Z,88.12
2023-02-19T09:35:53.118Z,87.51
2023-02-19T09:36:53.096Z,88.12
2023-02-19T09:37:53.085Z,88.02
2023-02-19T09:38:53.065Z,87.61
2023-02-19T09:39:53.086Z,86.28
2023-02-19T09:40:53.056Z,87.61
2023-02-19T09:41:53.046Z,86.58
2023-02-19T09:42:53.046Z,85.93
2023-02-19T09:43:53.027Z,86.04
2023-02-19T09:44:53.008Z,84.91
2023-02-19T09:45:53.033Z,85.22
2023-02-19T09:46:52.987Z,85.52
2023-02-19T09:47:52.978Z,85.11
2023-02-19T09:48:52.970Z,83.68
2023-02-19T09:49:52.957Z,84.46
2023-02-19T09:50:52.948Z,84.87
2023-02-19T09:51:52.949Z,84.05
2023-02-19T09:52:52.948Z,83.54
2023-02-19T09:53:52.914Z,83.64
2023-02-19T09:54:52.889Z,83.91
2023-02-19T09:55:52.904Z,82.57
2023-02-19T09:56:52.879Z,82.68
2023-02-19T09:57:52.888Z,84.52
2023-02-19T09:58:52.861Z,82.37
2023-02-19T09:59:52.840Z,82.07
2023-02-19T10:00:52.827Z,82.34
2023-02-19T10:01:52.855Z,81.93
2023-02-19T10:02:52.800Z,82.84
2023-02-19T10:03:52.811Z,82.23
2023-02-19T10:04:52.826Z,82.34
2023-02-19T10:05:53.180Z,81.01
2023-02-19T10:06:52.760Z,81.01
2023-02-19T10:07:52.760Z,82.43
2023-02-19T10:08:52.741Z,82.91
2023-02-19T10:09:52.740Z,82.70
2023-02-19T10:10:52.719Z,81.27
2023-02-19T10:11:52.725Z,81.07
2023-02-19T10:12:52.698Z,80.62
2023-02-19T10:13:52.692Z,80.93
2023-02-19T10:14:52.704Z,81.34
2023-02-19T10:15:52.722Z,81.13
2023-02-19T10:16:52.647Z,79.50
2023-02-19T10:17:52.653Z,79.29
2023-02-19T10:18:52.635Z,80.21
2023-02-19T10:19:52.624Z,78.27
2023-02-19T10:20:52.607Z,78.78
2023-02-19T10:21:52.603Z,79.29
2023-02-19T10:22:52.584Z,79.60
2023-02-19T10:23:52.614Z,80.69
2023-02-19T10:24:52.574Z,79.36
2023-02-19T10:25:52.554Z,79.05
2023-02-19T10:26:52.570Z,79.57
2023-02-19T10:27:52.555Z,78.95
2023-02-19T10:28:52.524Z,79.22
2023-02-19T10:29:52.546Z,79.12
2023-02-19T10:30:52.508Z,78.30
2023-02-19T10:31:52.563Z,78.71
2023-02-19T10:32:52.467Z,79.02
2023-02-19T10:33:52.476Z,77.79
2023-02-19T10:34:52.457Z,78.00
2023-02-19T10:35:52.460Z,79.18
2023-02-19T10:36:52.454Z,79.28
2023-02-19T10:37:52.442Z,78.43
2023-02-19T10:38:52.409Z,77.31
2023-02-19T10:39:52.430Z,75.78
2023-02-19T10:40:52.403Z,76.59
2023-02-19T10:41:52.390Z,76.25
2023-02-19T10:42:52.371Z,75.64
2023-02-19T10:43:52.386Z,75.64
2023-02-19T10:44:52.356Z,75.78
2023-02-19T10:45:52.345Z,74.66
2023-02-19T10:46:52.797Z,76.15
2023-02-19T10:47:52.346Z,76.25
2023-02-19T10:48:52.424Z,74.93
2023-02-19T10:49:52.312Z,75.54
2023-02-19T10:50:52.294Z,75.92
2023-02-19T10:51:52.274Z,74.52
2023-02-19T10:52:52.275Z,76.76
2023-02-19T10:53:52.265Z,75.34
2023-02-19T10:54:52.246Z,74.18
2023-02-19T10:55:52.256Z,74.58
2023-02-19T10:56:52.232Z,74.58
2023-02-19T10:57:53.008Z,73.97
2023-02-19T10:58:52.196Z,75.60
2023-02-19T10:59:52.197Z,73.47
2023-02-19T11:00:52.177Z,73.97
2023-02-19T11:01:52.199Z,72.86
2023-02-19T11:02:52.157Z,72.96
2023-02-19T11:03:52.175Z,74.49
2023-02-19T11:04:52.143Z,75.40
2023-02-19T11:05:52.141Z,75.34
2023-02-19T11:06:52.108Z,76.35
2023-02-19T11:07:52.118Z,76.87
2023-02-19T11:08:52.092Z,76.59
2023-02-19T11:09:52.079Z,77.17
2023-02-19T11:10:52.077Z,75.64
2023-02-19T11:11:52.081Z,76.12
2023-02-19T11:12:52.080Z,76.08
2023-02-19T11:13:52.067Z,75.23
2023-02-19T11:14:52.025Z,73.40
2023-02-19T11:15:52.102Z,72.78
2023-02-19T11:16:52.047Z,74.41
2023-02-19T11:17:52.002Z,73.30
2023-02-19T11:18:51.981Z,74.11
2023-02-19T11:19:51.980Z,73.60
2023-02-19T11:20:51.960Z,76.15
2023-02-19T11:21:51.963Z,74.72
2023-02-19T11:22:52.042Z,74.32
2023-02-19T11:23:51.945Z,76.15
2023-02-19T11:24:55.703Z,75.54
2023-02-19T11:25:51.922Z,75.02
2023-02-19T11:26:51.898Z,75.37
2023-02-19T11:27:51.904Z,76.42
2023-02-19T11:28:51.875Z,77.34
2023-02-19T11:29:51.884Z,77.34
2023-02-19T11:30:51.952Z,78.56
2023-02-19T11:31:51.991Z,77.98
2023-02-19T11:32:51.836Z,78.39
2023-02-19T11:33:51.844Z,79.82
2023-02-19T11:34:51.824Z,80.33
2023-02-19T11:35:51.809Z,80.37
2023-02-19T11:36:51.795Z,80.16
2023-02-19T11:37:51.799Z,80.57
2023-02-19T11:38:51.778Z,80.68
2023-02-19T11:39:51.969Z,81.80
2023-02-19T11:40:51.751Z,80.16
2023-02-19T11:41:51.741Z,80.57
2023-02-19T11:42:51.734Z,81.49
2023-02-19T11:43:51.730Z,81.29
2023-02-19T11:44:51.801Z,81.80
2023-02-19T11:45:51.704Z,80.30
2023-02-19T11:46:51.703Z,81.23
2023-02-19T11:47:51.675Z,82.24
2023-02-19T11:48:51.667Z,81.67
2023-02-19T11:49:51.667Z,81.98
2023-02-19T11:50:51.661Z,82.32
2023-02-19T11:51:52.873Z,82.12
2023-02-19T11:52:52.442Z,82.01
2023-02-19T11:53:51.617Z,82.12
2023-02-19T11:54:51.708Z,82.01
2023-02-19T11:55:51.606Z,81.98
2023-02-19T11:56:51.576Z,81.46
2023-02-19T11:57:51.594Z,81.12
2023-02-19T11:58:51.563Z,81.53
2023-02-19T11:59:51.546Z,81.67
2023-02-19T12:00:51.549Z,82.28
2023-02-19T12:01:51.605Z,81.02
2023-02-19T12:02:51.525Z,81.12
2023-02-19T12:03:51.524Z,81.46
2023-02-19T12:04:51.523Z,80.82
2023-02-19T12:05:51.518Z,81.67
2023-02-19T12:06:51.499Z,81.67
2023-02-19T12:07:51.472Z,81.51
2023-02-19T12:08:51.448Z,82.63
2023-02-19T12:09:51.448Z,82.53
2023-02-19T12:10:51.440Z,81.98
2023-02-19T12:11:51.434Z,83.20
2023-02-19T12:12:51.413Z,82.69
2023-02-19T12:13:51.404Z,82.79
2023-02-19T12:14:51.402Z,82.79
2023-02-19T12:15:51.392Z,82.18
2023-02-19T12:16:51.362Z,82.55
2023-02-19T12:17:51.361Z,81.67
2023-02-19T12:18:51.352Z,82.53
2023-02-19T12:19:51.331Z,83.54
2023-02-19T12:20:51.321Z,83.34
2023-02-19T12:21:51.311Z,83.59
2023-02-19T12:22:51.301Z,83.69
2023-02-19T12:23:51.302Z,84.24
2023-02-19T12:24:51.290Z,85.16
2023-02-19T12:25:52.082Z,83.01
2023-02-19T12:26:51.274Z,84.75
2023-02-19T12:27:51.262Z,84.00
2023-02-19T12:28:51.233Z,83.59
2023-02-19T12:29:51.235Z,84.30
2023-02-19T12:30:51.227Z,84.30
2023-02-19T12:31:51.302Z,83.28
2023-02-19T12:32:51.197Z,83.89
2023-02-19T12:33:51.266Z,82.97
2023-02-19T12:34:51.164Z,82.15
2023-02-19T12:35:51.175Z,82.70
2023-02-19T12:36:51.147Z,82.60
2023-02-19T12:37:51.161Z,83.83
2023-02-19T12:38:51.477Z,83.01
2023-02-19T12:39:51.126Z,82.77
2023-02-19T12:40:51.114Z,82.05
2023-02-19T12:41:51.097Z,82.97
2023-02-19T12:42:51.243Z,82.77
2023-02-19T12:43:51.446Z,82.22
2023-02-19T12:44:51.120Z,82.93
2023-02-19T12:45:51.199Z,82.22
2023-02-19T12:46:51.155Z,83.04
2023-02-19T12:47:51.039Z,81.60
2023-02-19T12:48:51.018Z,81.30
2023-02-19T12:49:51.458Z,81.60
2023-02-19T12:50:51.011Z,81.20
2023-02-19T12:51:51.001Z,82.05
2023-02-19T12:52:51.033Z,82.15